sensor_id;sensor_type;location;lat;lon;timestamp;P1;durP1;ratioP1;P2;durP2;ratioP2
77733;SDS011;66902;41.720;44.796;2023-08-24T00:00:23;3.60;;;3.30;;
77733;SDS011;66902;41.720;44.796;2023-08-24T00:03:14;4.40;;;3.30;;
77733;SDS011;66902;41.720;44.796;2023-08-24T00:05:48;3.90;;;3.10;;
77733;SDS011;66902;41.720;44.796;2023-08-24T00:08:21;7.40;;;3.40;;
77733;SDS011;66902;41.720;44.796;2023-08-24T00:10:54;4.10;;;3.20;;
77733;SDS011;66902;41.720;44.796;2023-08-24T00:13:27;4.20;;;3.20;;
77733;SDS011;66902;41.720;44.796;2023-08-24T00:16:00;3.80;;;3.00;;
77733;SDS011;66902;41.720;44.796;2023-08-24T00:18:33;3.70;;;3.00;;
77733;SDS011;66902;41.720;44.796;2023-08-24T00:21:06;4.90;;;3.90;;
77733;SDS011;66902;41.720;44.796;2023-08-24T00:23:38;9.00;;;3.30;;
77733;SDS011;66902;41.720;44.796;2023-08-24T00:26:12;5.40;;;3.70;;
77733;SDS011;66902;41.720;44.796;2023-08-24T00:28:46;4.00;;;3.30;;
77733;SDS011;66902;41.720;44.796;2023-08-24T00:31:17;12.70;;;3.60;;
77733;SDS011;66902;41.720;44.796;2023-08-24T00:33:48;4.60;;;3.80;;
77733;SDS011;66902;41.720;44.796;2023-08-24T00:36:21;4.50;;;3.60;;
77733;SDS011;66902;41.720;44.796;2023-08-24T00:38:55;4.50;;;3.80;;
77733;SDS011;66902;41.720;44.796;2023-08-24T00:41:26;5.10;;;4.00;;
77733;SDS011;66902;41.720;44.796;2023-08-24T00:43:58;4.20;;;3.20;;
77733;SDS011;66902;41.720;44.796;2023-08-24T00:46:31;4.20;;;3.80;;
77733;SDS011;66902;41.720;44.796;2023-08-24T00:49:03;8.20;;;4.20;;
77733;SDS011;66902;41.720;44.796;2023-08-24T00:51:35;4.40;;;4.00;;
77733;SDS011;66902;41.720;44.796;2023-08-24T00:54:11;6.60;;;3.30;;
77733;SDS011;66902;41.720;44.796;2023-08-24T00:56:42;4.20;;;3.10;;
77733;SDS011;66902;41.720;44.796;2023-08-24T00:59:16;4.40;;;3.40;;
77733;SDS011;66902;41.720;44.796;2023-08-24T01:01:48;3.60;;;3.30;;
77733;SDS011;66902;41.720;44.796;2023-08-24T01:04:20;4.00;;;3.10;;
77733;SDS011;66902;41.720;44.796;2023-08-24T01:06:51;3.10;;;2.50;;
77733;SDS011;66902;41.720;44.796;2023-08-24T01:09:24;3.90;;;3.10;;
77733;SDS011;66902;41.720;44.796;2023-08-24T01:11:57;6.80;;;3.00;;
77733;SDS011;66902;41.720;44.796;2023-08-24T01:14:34;5.10;;;3.50;;
77733;SDS011;66902;41.720;44.796;2023-08-24T01:17:09;4.60;;;3.80;;
77733;SDS011;66902;41.720;44.796;2023-08-24T01:19:43;5.90;;;3.50;;
77733;SDS011;66902;41.720;44.796;2023-08-24T01:22:23;4.80;;;4.20;;
77733;SDS011;66902;41.720;44.796;2023-08-24T01:25:05;4.00;;;3.60;;
77733;SDS011;66902;41.720;44.796;2023-08-24T01:27:41;3.90;;;2.80;;
77733;SDS011;66902;41.720;44.796;2023-08-24T01:30:14;4.40;;;4.00;;
77733;SDS011;66902;41.720;44.796;2023-08-24T01:32:45;2.80;;;2.60;;
77733;SDS011;66902;41.720;44.796;2023-08-24T01:35:17;4.50;;;3.70;;
77733;SDS011;66902;41.720;44.796;2023-08-24T01:37:50;7.80;;;3.30;;
77733;SDS011;66902;41.720;44.796;2023-08-24T01:40:25;5.10;;;3.50;;
77733;SDS011;66902;41.720;44.796;2023-08-24T01:43:01;3.80;;;3.50;;
77733;SDS011;66902;41.720;44.796;2023-08-24T01:45:37;4.20;;;3.30;;
77733;SDS011;66902;41.720;44.796;2023-08-24T01:48:09;3.90;;;3.50;;
77733;SDS011;66902;41.720;44.796;2023-08-24T01:50:42;4.30;;;3.20;;
77733;SDS011;66902;41.720;44.796;2023-08-24T01:53:15;6.70;;;5.20;;
77733;SDS011;66902;41.720;44.796;2023-08-24T01:55:47;3.90;;;3.60;;
77733;SDS011;66902;41.720;44.796;2023-08-24T01:58:22;4.10;;;3.70;;
77733;SDS011;66902;41.720;44.796;2023-08-24T02:00:54;6.90;;;3.80;;
77733;SDS011;66902;41.720;44.796;2023-08-24T02:03:26;4.80;;;3.90;;
77733;SDS011;66902;41.720;44.796;2023-08-24T02:05:57;5.00;;;3.70;;
77733;SDS011;66902;41.720;44.796;2023-08-24T02:08:30;3.90;;;3.60;;
77733;SDS011;66902;41.720;44.796;2023-08-24T02:11:01;4.70;;;3.20;;
77733;SDS011;66902;41.720;44.796;2023-08-24T02:13:33;2.90;;;2.70;;
77733;SDS011;66902;41.720;44.796;2023-08-24T02:16:07;5.00;;;3.40;;
77733;SDS011;66902;41.720;44.796;2023-08-24T02:18:39;4.90;;;4.20;;
77733;SDS011;66902;41.720;44.796;2023-08-24T02:21:12;11.20;;;3.70;;
77733;SDS011;66902;41.720;44.796;2023-08-24T02:23:46;7.30;;;3.20;;
77733;SDS011;66902;41.720;44.796;2023-08-24T02:26:18;3.90;;;3.30;;
77733;SDS011;66902;41.720;44.796;2023-08-24T02:28:51;14.70;;;4.10;;
77733;SDS011;66902;41.720;44.796;2023-08-24T02:31:23;7.30;;;4.30;;
77733;SDS011;66902;41.720;44.796;2023-08-24T02:33:55;5.50;;;3.50;;
77733;SDS011;66902;41.720;44.796;2023-08-24T02:36:28;6.20;;;4.20;;
77733;SDS011;66902;41.720;44.796;2023-08-24T02:39:02;5.00;;;3.50;;
77733;SDS011;66902;41.720;44.796;2023-08-24T02:41:34;4.20;;;3.30;;
77733;SDS011;66902;41.720;44.796;2023-08-24T02:44:07;7.00;;;3.40;;
77733;SDS011;66902;41.720;44.796;2023-08-24T02:46:40;3.60;;;3.20;;
77733;SDS011;66902;41.720;44.796;2023-08-24T02:49:12;3.90;;;3.60;;
77733;SDS011;66902;41.720;44.796;2023-08-24T02:51:44;3.60;;;3.30;;
77733;SDS011;66902;41.720;44.796;2023-08-24T02:54:16;8.00;;;3.80;;
77733;SDS011;66902;41.720;44.796;2023-08-24T02:56:48;5.60;;;4.50;;
77733;SDS011;66902;41.720;44.796;2023-08-24T02:59:20;17.40;;;7.00;;
77733;SDS011;66902;41.720;44.796;2023-08-24T03:01:52;7.10;;;4.40;;
77733;SDS011;66902;41.720;44.796;2023-08-24T03:04:24;5.40;;;4.30;;
77733;SDS011;66902;41.720;44.796;2023-08-24T03:06:56;5.80;;;3.60;;
77733;SDS011;66902;41.720;44.796;2023-08-24T03:09:27;6.30;;;4.30;;
77733;SDS011;66902;41.720;44.796;2023-08-24T03:11:58;4.70;;;3.40;;
77733;SDS011;66902;41.720;44.796;2023-08-24T03:14:30;10.10;;;3.40;;
77733;SDS011;66902;41.720;44.796;2023-08-24T03:17:01;4.50;;;3.90;;
77733;SDS011;66902;41.720;44.796;2023-08-24T03:19:33;5.20;;;4.10;;
77733;SDS011;66902;41.720;44.796;2023-08-24T03:22:05;5.30;;;4.20;;
77733;SDS011;66902;41.720;44.796;2023-08-24T03:24:38;8.20;;;3.00;;
77733;SDS011;66902;41.720;44.796;2023-08-24T03:27:10;5.40;;;3.50;;
77733;SDS011;66902;41.720;44.796;2023-08-24T03:29:42;7.70;;;5.30;;
77733;SDS011;66902;41.720;44.796;2023-08-24T03:32:18;4.60;;;3.70;;
77733;SDS011;66902;41.720;44.796;2023-08-24T03:34:50;6.50;;;3.10;;
77733;SDS011;66902;41.720;44.796;2023-08-24T03:37:28;9.30;;;5.50;;
77733;SDS011;66902;41.720;44.796;2023-08-24T03:40:01;6.40;;;2.70;;
77733;SDS011;66902;41.720;44.796;2023-08-24T03:42:34;8.90;;;4.10;;
77733;SDS011;66902;41.720;44.796;2023-08-24T03:45:06;5.80;;;2.50;;
77733;SDS011;66902;41.720;44.796;2023-08-24T03:47:38;7.40;;;3.20;;
77733;SDS011;66902;41.720;44.796;2023-08-24T03:50:10;3.50;;;2.90;;
77733;SDS011;66902;41.720;44.796;2023-08-24T03:52:43;2.30;;;2.10;;
77733;SDS011;66902;41.720;44.796;2023-08-24T03:55:20;6.80;;;2.80;;
77733;SDS011;66902;41.720;44.796;2023-08-24T03:57:53;13.00;;;3.10;;
77733;SDS011;66902;41.720;44.796;2023-08-24T04:00:28;3.30;;;2.20;;
77733;SDS011;66902;41.720;44.796;2023-08-24T04:03:00;2.80;;;2.10;;
77733;SDS011;66902;41.720;44.796;2023-08-24T04:05:32;4.80;;;3.20;;
77733;SDS011;66902;41.720;44.796;2023-08-24T04:08:07;5.40;;;2.20;;
77733;SDS011;66902;41.720;44.796;2023-08-24T04:10:39;2.80;;;2.40;;
77733;SDS011;66902;41.720;44.796;2023-08-24T04:13:12;4.10;;;2.50;;
77733;SDS011;66902;41.720;44.796;2023-08-24T04:15:43;3.00;;;2.00;;
77733;SDS011;66902;41.720;44.796;2023-08-24T04:18:13;5.60;;;2.30;;
77733;SDS011;66902;41.720;44.796;2023-08-24T04:20:46;3.70;;;1.70;;
77733;SDS011;66902;41.720;44.796;2023-08-24T04:23:17;8.20;;;2.60;;
77733;SDS011;66902;41.720;44.796;2023-08-24T04:25:52;6.10;;;2.80;;
77733;SDS011;66902;41.720;44.796;2023-08-24T04:28:26;7.00;;;2.60;;
77733;SDS011;66902;41.720;44.796;2023-08-24T04:30:58;5.80;;;2.70;;
77733;SDS011;66902;41.720;44.796;2023-08-24T04:33:28;4.80;;;3.20;;
77733;SDS011;66902;41.720;44.796;2023-08-24T04:36:01;9.40;;;3.40;;
77733;SDS011;66902;41.720;44.796;2023-08-24T04:38:35;3.10;;;2.20;;
77733;SDS011;66902;41.720;44.796;2023-08-24T04:41:07;6.90;;;2.90;;
77733;SDS011;66902;41.720;44.796;2023-08-24T04:43:42;7.10;;;2.90;;
77733;SDS011;66902;41.720;44.796;2023-08-24T04:46:13;14.30;;;2.70;;
77733;SDS011;66902;41.720;44.796;2023-08-24T04:48:45;3.50;;;2.80;;
77733;SDS011;66902;41.720;44.796;2023-08-24T04:51:17;4.40;;;2.50;;
77733;SDS011;66902;41.720;44.796;2023-08-24T04:53:49;16.70;;;2.40;;
77733;SDS011;66902;41.720;44.796;2023-08-24T04:56:20;5.30;;;2.60;;
77733;SDS011;66902;41.720;44.796;2023-08-24T04:58:55;10.20;;;2.70;;
77733;SDS011;66902;41.720;44.796;2023-08-24T05:01:29;5.40;;;2.70;;
77733;SDS011;66902;41.720;44.796;2023-08-24T05:04:01;5.80;;;2.70;;
77733;SDS011;66902;41.720;44.796;2023-08-24T05:06:32;4.20;;;2.50;;
77733;SDS011;66902;41.720;44.796;2023-08-24T05:09:04;3.10;;;1.90;;
77733;SDS011;66902;41.720;44.796;2023-08-24T05:11:36;5.20;;;2.20;;
77733;SDS011;66902;41.720;44.796;2023-08-24T05:14:09;8.00;;;1.80;;
77733;SDS011;66902;41.720;44.796;2023-08-24T05:16:45;4.40;;;2.00;;
77733;SDS011;66902;41.720;44.796;2023-08-24T05:19:18;2.50;;;1.80;;
77733;SDS011;66902;41.720;44.796;2023-08-24T05:21:50;3.70;;;1.70;;
77733;SDS011;66902;41.720;44.796;2023-08-24T05:24:22;3.90;;;2.10;;
77733;SDS011;66902;41.720;44.796;2023-08-24T05:26:57;3.40;;;1.60;;
77733;SDS011;66902;41.720;44.796;2023-08-24T05:29:29;1.90;;;1.30;;
77733;SDS011;66902;41.720;44.796;2023-08-24T05:32:01;4.70;;;1.40;;
77733;SDS011;66902;41.720;44.796;2023-08-24T05:34:35;4.50;;;2.00;;
77733;SDS011;66902;41.720;44.796;2023-08-24T05:37:09;4.50;;;1.90;;
77733;SDS011;66902;41.720;44.796;2023-08-24T05:39:41;5.10;;;2.30;;
77733;SDS011;66902;41.720;44.796;2023-08-24T05:42:13;2.90;;;1.40;;
77733;SDS011;66902;41.720;44.796;2023-08-24T05:44:46;3.40;;;1.20;;
77733;SDS011;66902;41.720;44.796;2023-08-24T05:47:18;2.10;;;1.70;;
77733;SDS011;66902;41.720;44.796;2023-08-24T05:49:51;2.00;;;1.40;;
77733;SDS011;66902;41.720;44.796;2023-08-24T05:52:22;3.10;;;1.40;;
77733;SDS011;66902;41.720;44.796;2023-08-24T05:54:55;2.10;;;1.50;;
77733;SDS011;66902;41.720;44.796;2023-08-24T05:57:27;4.00;;;1.70;;
77733;SDS011;66902;41.720;44.796;2023-08-24T05:59:58;2.00;;;1.30;;
77733;SDS011;66902;41.720;44.796;2023-08-24T06:02:31;5.10;;;1.70;;
77733;SDS011;66902;41.720;44.796;2023-08-24T06:05:04;3.00;;;1.50;;
77733;SDS011;66902;41.720;44.796;2023-08-24T06:07:37;3.50;;;1.20;;
77733;SDS011;66902;41.720;44.796;2023-08-24T06:10:10;2.30;;;1.10;;
77733;SDS011;66902;41.720;44.796;2023-08-24T06:12:41;4.50;;;1.20;;
77733;SDS011;66902;41.720;44.796;2023-08-24T06:15:14;2.90;;;0.90;;
77733;SDS011;66902;41.720;44.796;2023-08-24T06:17:50;5.30;;;1.50;;
77733;SDS011;66902;41.720;44.796;2023-08-24T06:20:21;2.70;;;1.30;;
77733;SDS011;66902;41.720;44.796;2023-08-24T06:22:52;4.00;;;1.00;;
77733;SDS011;66902;41.720;44.796;2023-08-24T06:25:28;2.90;;;1.30;;
77733;SDS011;66902;41.720;44.796;2023-08-24T06:27:59;4.40;;;1.50;;
77733;SDS011;66902;41.720;44.796;2023-08-24T06:33:05;9.00;;;1.30;;
77733;SDS011;66902;41.720;44.796;2023-08-24T06:38:10;1.10;;;0.60;;
77733;SDS011;66902;41.720;44.796;2023-08-24T06:40:41;2.20;;;1.50;;
77733;SDS011;66902;41.720;44.796;2023-08-24T06:43:14;3.40;;;1.70;;
77733;SDS011;66902;41.720;44.796;2023-08-24T06:45:45;2.70;;;1.30;;
77733;SDS011;66902;41.720;44.796;2023-08-24T06:48:19;6.80;;;2.30;;
77733;SDS011;66902;41.720;44.796;2023-08-24T06:50:52;2.60;;;1.40;;
77733;SDS011;66902;41.720;44.796;2023-08-24T06:53:23;5.70;;;1.80;;
77733;SDS011;66902;41.720;44.796;2023-08-24T06:55:55;6.50;;;1.50;;
77733;SDS011;66902;41.720;44.796;2023-08-24T06:58:27;3.00;;;1.60;;
77733;SDS011;66902;41.720;44.796;2023-08-24T07:00:57;5.40;;;2.20;;
77733;SDS011;66902;41.720;44.796;2023-08-24T07:03:30;1.30;;;0.70;;
77733;SDS011;66902;41.720;44.796;2023-08-24T07:06:01;4.70;;;1.00;;
77733;SDS011;66902;41.720;44.796;2023-08-24T07:08:32;2.00;;;1.40;;
77733;SDS011;66902;41.720;44.796;2023-08-24T07:11:05;4.30;;;1.50;;
77733;SDS011;66902;41.720;44.796;2023-08-24T07:13:37;1.60;;;1.30;;
77733;SDS011;66902;41.720;44.796;2023-08-24T07:16:11;9.90;;;1.90;;
77733;SDS011;66902;41.720;44.796;2023-08-24T07:18:43;8.20;;;1.10;;
77733;SDS011;66902;41.720;44.796;2023-08-24T07:21:14;5.20;;;1.20;;
77733;SDS011;66902;41.720;44.796;2023-08-24T07:23:47;3.70;;;2.10;;
77733;SDS011;66902;41.720;44.796;2023-08-24T07:26:17;6.30;;;1.70;;
77733;SDS011;66902;41.720;44.796;2023-08-24T07:28:51;3.40;;;1.60;;
77733;SDS011;66902;41.720;44.796;2023-08-24T07:31:21;2.60;;;1.30;;
77733;SDS011;66902;41.720;44.796;2023-08-24T07:33:53;4.90;;;1.70;;
77733;SDS011;66902;41.720;44.796;2023-08-24T07:36:25;5.30;;;1.20;;
77733;SDS011;66902;41.720;44.796;2023-08-24T07:38:57;1.70;;;1.30;;
77733;SDS011;66902;41.720;44.796;2023-08-24T07:41:30;2.70;;;1.10;;
77733;SDS011;66902;41.720;44.796;2023-08-24T07:44:01;7.50;;;1.20;;
77733;SDS011;66902;41.720;44.796;2023-08-24T07:46:33;6.70;;;1.20;;
77733;SDS011;66902;41.720;44.796;2023-08-24T07:49:05;1.80;;;1.00;;
77733;SDS011;66902;41.720;44.796;2023-08-24T07:51:38;4.50;;;1.20;;
77733;SDS011;66902;41.720;44.796;2023-08-24T07:54:11;8.60;;;1.40;;
77733;SDS011;66902;41.720;44.796;2023-08-24T07:56:42;3.50;;;1.80;;
77733;SDS011;66902;41.720;44.796;2023-08-24T07:59:14;4.50;;;1.60;;
77733;SDS011;66902;41.720;44.796;2023-08-24T08:20:33;7.90;;;1.60;;
77733;SDS011;66902;41.720;44.796;2023-08-24T08:23:20;5.00;;;1.80;;
77733;SDS011;66902;41.720;44.796;2023-08-24T08:25:54;3.60;;;1.70;;
77733;SDS011;66902;41.720;44.796;2023-08-24T08:28:28;3.70;;;2.00;;
77733;SDS011;66902;41.720;44.796;2023-08-24T08:31:04;3.50;;;2.40;;
77733;SDS011;66902;41.720;44.796;2023-08-24T08:33:38;6.70;;;2.70;;
77733;SDS011;66902;41.720;44.796;2023-08-24T08:36:12;5.10;;;3.90;;
77733;SDS011;66902;41.720;44.796;2023-08-24T08:38:47;2.90;;;2.00;;
77733;SDS011;66902;41.720;44.796;2023-08-24T08:41:21;5.20;;;2.60;;
77733;SDS011;66902;41.720;44.796;2023-08-24T08:43:57;5.30;;;2.60;;
77733;SDS011;66902;41.720;44.796;2023-08-24T08:46:31;2.20;;;1.40;;
77733;SDS011;66902;41.720;44.796;2023-08-24T08:49:05;3.60;;;2.40;;
77733;SDS011;66902;41.720;44.796;2023-08-24T08:51:40;6.80;;;2.00;;
77733;SDS011;66902;41.720;44.796;2023-08-24T08:54:14;5.40;;;1.90;;
77733;SDS011;66902;41.720;44.796;2023-08-24T08:56:48;8.40;;;2.30;;
77733;SDS011;66902;41.720;44.796;2023-08-24T08:59:22;4.10;;;2.10;;
77733;SDS011;66902;41.720;44.796;2023-08-24T09:01:59;4.30;;;1.90;;
77733;SDS011;66902;41.720;44.796;2023-08-24T09:04:34;2.40;;;1.80;;
77733;SDS011;66902;41.720;44.796;2023-08-24T09:07:08;7.20;;;2.00;;
77733;SDS011;66902;41.720;44.796;2023-08-24T09:09:43;6.20;;;1.70;;
77733;SDS011;66902;41.720;44.796;2023-08-24T09:12:17;5.80;;;4.70;;
77733;SDS011;66902;41.720;44.796;2023-08-24T09:14:50;9.40;;;6.80;;
77733;SDS011;66902;41.720;44.796;2023-08-24T09:17:24;3.10;;;2.80;;
77733;SDS011;66902;41.720;44.796;2023-08-24T09:19:59;3.80;;;2.00;;
77733;SDS011;66902;41.720;44.796;2023-08-24T09:22:40;9.10;;;3.50;;
77733;SDS011;66902;41.720;44.796;2023-08-24T09:25:14;3.90;;;2.30;;
77733;SDS011;66902;41.720;44.796;2023-08-24T09:27:47;11.70;;;3.80;;
77733;SDS011;66902;41.720;44.796;2023-08-24T09:30:30;3.50;;;3.20;;
77733;SDS011;66902;41.720;44.796;2023-08-24T09:33:04;8.60;;;2.40;;
77733;SDS011;66902;41.720;44.796;2023-08-24T09:35:42;2.40;;;2.20;;
77733;SDS011;66902;41.720;44.796;2023-08-24T09:38:17;7.80;;;3.90;;
77733;SDS011;66902;41.720;44.796;2023-08-24T09:40:52;5.10;;;4.20;;
77733;SDS011;66902;41.720;44.796;2023-08-24T09:43:29;3.10;;;2.00;;
77733;SDS011;66902;41.720;44.796;2023-08-24T09:46:04;6.60;;;2.10;;
77733;SDS011;66902;41.720;44.796;2023-08-24T09:48:38;11.10;;;3.40;;
77733;SDS011;66902;41.720;44.796;2023-08-24T09:51:13;3.10;;;2.70;;
77733;SDS011;66902;41.720;44.796;2023-08-24T09:53:47;5.50;;;2.30;;
77733;SDS011;66902;41.720;44.796;2023-08-24T09:56:21;6.50;;;2.80;;
77733;SDS011;66902;41.720;44.796;2023-08-24T09:58:56;7.70;;;2.70;;
77733;SDS011;66902;41.720;44.796;2023-08-24T10:01:33;9.40;;;2.20;;
77733;SDS011;66902;41.720;44.796;2023-08-24T10:04:09;9.30;;;2.30;;
77733;SDS011;66902;41.720;44.796;2023-08-24T10:06:43;13.30;;;4.10;;
77733;SDS011;66902;41.720;44.796;2023-08-24T10:09:21;3.40;;;2.90;;
77733;SDS011;66902;41.720;44.796;2023-08-24T10:12:04;8.10;;;6.00;;
77733;SDS011;66902;41.720;44.796;2023-08-24T10:14:41;5.80;;;3.00;;
77733;SDS011;66902;41.720;44.796;2023-08-24T10:17:19;3.50;;;2.30;;
77733;SDS011;66902;41.720;44.796;2023-08-24T10:19:54;8.60;;;3.70;;
77733;SDS011;66902;41.720;44.796;2023-08-24T10:22:31;5.70;;;2.80;;
77733;SDS011;66902;41.720;44.796;2023-08-24T10:25:06;6.70;;;3.20;;
77733;SDS011;66902;41.720;44.796;2023-08-24T10:27:40;5.50;;;4.20;;
77733;SDS011;66902;41.720;44.796;2023-08-24T10:30:16;3.00;;;2.60;;
77733;SDS011;66902;41.720;44.796;2023-08-24T10:32:50;5.50;;;2.20;;
77733;SDS011;66902;41.720;44.796;2023-08-24T10:35:25;5.30;;;4.40;;
77733;SDS011;66902;41.720;44.796;2023-08-24T10:38:00;3.70;;;3.00;;
77733;SDS011;66902;41.720;44.796;2023-08-24T10:40:35;3.20;;;2.70;;
77733;SDS011;66902;41.720;44.796;2023-08-24T10:43:13;10.20;;;2.50;;
77733;SDS011;66902;41.720;44.796;2023-08-24T10:45:57;8.30;;;2.50;;
77733;SDS011;66902;41.720;44.796;2023-08-24T10:48:32;4.70;;;2.90;;
77733;SDS011;66902;41.720;44.796;2023-08-24T10:51:31;5.10;;;2.00;;
77733;SDS011;66902;41.720;44.796;2023-08-24T10:54:16;8.50;;;2.50;;
77733;SDS011;66902;41.720;44.796;2023-08-24T10:56:53;3.00;;;2.10;;
77733;SDS011;66902;41.720;44.796;2023-08-24T10:59:29;3.20;;;1.90;;
77733;SDS011;66902;41.720;44.796;2023-08-24T11:02:20;7.40;;;2.60;;
77733;SDS011;66902;41.720;44.796;2023-08-24T11:05:06;5.70;;;2.80;;
77733;SDS011;66902;41.720;44.796;2023-08-24T11:07:50;5.50;;;2.30;;
77733;SDS011;66902;41.720;44.796;2023-08-24T11:10:30;10.30;;;2.30;;
77733;SDS011;66902;41.720;44.796;2023-08-24T11:13:05;7.90;;;2.60;;
77733;SDS011;66902;41.720;44.796;2023-08-24T11:15:41;6.00;;;3.10;;
77733;SDS011;66902;41.720;44.796;2023-08-24T11:18:19;4.20;;;3.20;;
77733;SDS011;66902;41.720;44.796;2023-08-24T11:20:55;4.50;;;3.10;;
77733;SDS011;66902;41.720;44.796;2023-08-24T11:23:32;3.50;;;2.50;;
77733;SDS011;66902;41.720;44.796;2023-08-24T11:26:05;5.80;;;2.90;;
77733;SDS011;66902;41.720;44.796;2023-08-24T11:28:41;7.80;;;4.40;;
77733;SDS011;66902;41.720;44.796;2023-08-24T11:31:18;12.10;;;4.00;;
77733;SDS011;66902;41.720;44.796;2023-08-24T11:33:55;7.60;;;4.10;;
77733;SDS011;66902;41.720;44.796;2023-08-24T11:36:28;8.90;;;4.70;;
77733;SDS011;66902;41.720;44.796;2023-08-24T11:39:02;5.10;;;2.80;;
77733;SDS011;66902;41.720;44.796;2023-08-24T11:41:36;3.50;;;2.40;;
77733;SDS011;66902;41.720;44.796;2023-08-24T11:44:10;5.30;;;2.60;;
77733;SDS011;66902;41.720;44.796;2023-08-24T11:46:57;9.30;;;2.70;;
77733;SDS011;66902;41.720;44.796;2023-08-24T11:49:32;7.70;;;2.50;;
77733;SDS011;66902;41.720;44.796;2023-08-24T11:52:06;9.20;;;2.50;;
77733;SDS011;66902;41.720;44.796;2023-08-24T11:54:40;5.00;;;2.60;;
77733;SDS011;66902;41.720;44.796;2023-08-24T11:57:14;3.40;;;1.90;;
77733;SDS011;66902;41.720;44.796;2023-08-24T11:59:49;7.00;;;4.00;;
77733;SDS011;66902;41.720;44.796;2023-08-24T12:02:23;4.50;;;2.30;;
77733;SDS011;66902;41.720;44.796;2023-08-24T12:04:58;5.70;;;2.90;;
77733;SDS011;66902;41.720;44.796;2023-08-24T12:07:32;6.20;;;3.10;;
77733;SDS011;66902;41.720;44.796;2023-08-24T12:10:07;7.10;;;3.40;;
77733;SDS011;66902;41.720;44.796;2023-08-24T12:12:42;3.90;;;2.80;;
77733;SDS011;66902;41.720;44.796;2023-08-24T12:15:17;11.70;;;6.50;;
77733;SDS011;66902;41.720;44.796;2023-08-24T12:17:51;8.30;;;2.40;;
77733;SDS011;66902;41.720;44.796;2023-08-24T12:20:26;7.40;;;3.00;;
77733;SDS011;66902;41.720;44.796;2023-08-24T12:23:00;7.10;;;2.80;;
77733;SDS011;66902;41.720;44.796;2023-08-24T12:25:37;4.00;;;2.90;;
77733;SDS011;66902;41.720;44.796;2023-08-24T12:28:13;4.60;;;2.10;;
77733;SDS011;66902;41.720;44.796;2023-08-24T12:30:48;3.30;;;2.40;;
77733;SDS011;66902;41.720;44.796;2023-08-24T12:33:23;5.90;;;2.00;;
77733;SDS011;66902;41.720;44.796;2023-08-24T12:35:58;6.30;;;2.90;;
77733;SDS011;66902;41.720;44.796;2023-08-24T12:38:32;10.20;;;2.40;;
77733;SDS011;66902;41.720;44.796;2023-08-24T12:41:06;2.60;;;1.90;;
77733;SDS011;66902;41.720;44.796;2023-08-24T12:43:40;5.50;;;2.80;;
77733;SDS011;66902;41.720;44.796;2023-08-24T12:46:16;7.60;;;2.20;;
77733;SDS011;66902;41.720;44.796;2023-08-24T12:48:50;4.40;;;2.10;;
77733;SDS011;66902;41.720;44.796;2023-08-24T12:51:25;8.90;;;3.40;;
77733;SDS011;66902;41.720;44.796;2023-08-24T12:53:59;5.30;;;2.90;;
77733;SDS011;66902;41.720;44.796;2023-08-24T12:56:33;7.30;;;3.10;;
77733;SDS011;66902;41.720;44.796;2023-08-24T12:59:07;3.90;;;3.00;;
77733;SDS011;66902;41.720;44.796;2023-08-24T13:01:41;3.20;;;2.50;;
77733;SDS011;66902;41.720;44.796;2023-08-24T13:04:15;12.40;;;3.40;;
77733;SDS011;66902;41.720;44.796;2023-08-24T13:06:50;9.80;;;3.10;;
77733;SDS011;66902;41.720;44.796;2023-08-24T13:09:23;5.30;;;1.80;;
77733;SDS011;66902;41.720;44.796;2023-08-24T13:11:57;8.00;;;2.70;;
77733;SDS011;66902;41.720;44.796;2023-08-24T13:14:31;3.20;;;2.20;;
77733;SDS011;66902;41.720;44.796;2023-08-24T13:17:05;6.00;;;3.10;;
77733;SDS011;66902;41.720;44.796;2023-08-24T13:19:38;6.30;;;2.90;;
77733;SDS011;66902;41.720;44.796;2023-08-24T13:22:12;5.90;;;2.50;;
77733;SDS011;66902;41.720;44.796;2023-08-24T13:24:47;5.40;;;2.50;;
77733;SDS011;66902;41.720;44.796;2023-08-24T13:27:21;7.60;;;3.40;;
77733;SDS011;66902;41.720;44.796;2023-08-24T13:29:55;16.30;;;3.10;;
77733;SDS011;66902;41.720;44.796;2023-08-24T13:32:29;6.50;;;2.90;;
77733;SDS011;66902;41.720;44.796;2023-08-24T13:35:07;2.80;;;2.60;;
77733;SDS011;66902;41.720;44.796;2023-08-24T13:37:41;8.20;;;2.90;;
77733;SDS011;66902;41.720;44.796;2023-08-24T13:40:15;7.30;;;3.60;;
77733;SDS011;66902;41.720;44.796;2023-08-24T13:42:50;5.00;;;3.50;;
77733;SDS011;66902;41.720;44.796;2023-08-24T13:45:24;7.10;;;3.00;;
77733;SDS011;66902;41.720;44.796;2023-08-24T13:48:01;16.40;;;3.40;;
77733;SDS011;66902;41.720;44.796;2023-08-24T13:50:35;5.30;;;3.80;;
77733;SDS011;66902;41.720;44.796;2023-08-24T13:53:09;6.60;;;2.90;;
77733;SDS011;66902;41.720;44.796;2023-08-24T13:55:44;7.40;;;3.20;;
77733;SDS011;66902;41.720;44.796;2023-08-24T13:58:18;3.00;;;2.40;;
77733;SDS011;66902;41.720;44.796;2023-08-24T14:00:56;6.30;;;3.10;;
77733;SDS011;66902;41.720;44.796;2023-08-24T14:03:33;10.60;;;2.50;;
77733;SDS011;66902;41.720;44.796;2023-08-24T14:06:07;16.90;;;3.30;;
77733;SDS011;66902;41.720;44.796;2023-08-24T14:08:42;3.50;;;2.70;;
77733;SDS011;66902;41.720;44.796;2023-08-24T14:11:15;8.00;;;3.60;;
77733;SDS011;66902;41.720;44.796;2023-08-24T14:13:49;7.40;;;5.00;;
77733;SDS011;66902;41.720;44.796;2023-08-24T14:16:23;10.70;;;7.00;;
77733;SDS011;66902;41.720;44.796;2023-08-24T14:18:57;11.80;;;4.90;;
77733;SDS011;66902;41.720;44.796;2023-08-24T14:21:35;9.10;;;7.60;;
77733;SDS011;66902;41.720;44.796;2023-08-24T14:24:12;9.10;;;5.20;;
77733;SDS011;66902;41.720;44.796;2023-08-24T14:26:45;11.10;;;8.20;;
77733;SDS011;66902;41.720;44.796;2023-08-24T14:29:19;10.80;;;6.60;;
77733;SDS011;66902;41.720;44.796;2023-08-24T14:31:53;6.10;;;3.00;;
77733;SDS011;66902;41.720;44.796;2023-08-24T14:34:27;4.40;;;2.30;;
77733;SDS011;66902;41.720;44.796;2023-08-24T14:37:01;8.50;;;2.20;;
77733;SDS011;66902;41.720;44.796;2023-08-24T14:39:35;3.70;;;1.90;;
77733;SDS011;66902;41.720;44.796;2023-08-24T14:42:10;4.70;;;2.30;;
77733;SDS011;66902;41.720;44.796;2023-08-24T14:44:44;5.70;;;2.00;;
77733;SDS011;66902;41.720;44.796;2023-08-24T14:47:18;10.70;;;1.60;;
77733;SDS011;66902;41.720;44.796;2023-08-24T14:49:52;8.70;;;2.30;;
77733;SDS011;66902;41.720;44.796;2023-08-24T14:52:26;5.20;;;2.30;;
77733;SDS011;66902;41.720;44.796;2023-08-24T14:55:00;14.90;;;2.90;;
77733;SDS011;66902;41.720;44.796;2023-08-24T14:57:34;4.70;;;2.20;;
77733;SDS011;66902;41.720;44.796;2023-08-24T15:00:08;4.10;;;1.90;;
77733;SDS011;66902;41.720;44.796;2023-08-24T15:05:16;6.80;;;2.60;;
77733;SDS011;66902;41.720;44.796;2023-08-24T15:07:51;9.50;;;2.20;;
77733;SDS011;66902;41.720;44.796;2023-08-24T15:10:25;5.80;;;2.70;;
77733;SDS011;66902;41.720;44.796;2023-08-24T15:12:59;4.70;;;3.50;;
77733;SDS011;66902;41.720;44.796;2023-08-24T15:15:35;6.20;;;2.40;;
77733;SDS011;66902;41.720;44.796;2023-08-24T15:18:09;7.10;;;2.50;;
77733;SDS011;66902;41.720;44.796;2023-08-24T15:20:42;15.20;;;2.80;;
77733;SDS011;66902;41.720;44.796;2023-08-24T15:23:23;9.60;;;2.90;;
77733;SDS011;66902;41.720;44.796;2023-08-24T15:25:59;4.30;;;2.40;;
77733;SDS011;66902;41.720;44.796;2023-08-24T15:28:37;8.10;;;2.60;;
77733;SDS011;66902;41.720;44.796;2023-08-24T15:31:31;4.90;;;2.50;;
77733;SDS011;66902;41.720;44.796;2023-08-24T15:34:04;13.20;;;3.50;;
77733;SDS011;66902;41.720;44.796;2023-08-24T15:36:38;5.50;;;3.40;;
77733;SDS011;66902;41.720;44.796;2023-08-24T15:39:12;4.00;;;2.80;;